createdAt,value
2018-08-25T00:00:37.523Z,18.85
2018-08-25T00:05:41.118Z,18.87
2018-08-25T00:10:44.826Z,18.89
2018-08-25T00:15:48.460Z,18.91
2018-08-25T00:20:52.148Z,18.93
2018-08-25T00:25:55.750Z,18.92
2018-08-25T00:31:04.993Z,18.86
2018-08-25T00:36:08.601Z,18.76
2018-08-25T00:41:12.313Z,18.65
2018-08-25T00:46:16.189Z,18.61
2018-08-25T00:51:19.715Z,18.59
2018-08-25T00:56:23.318Z,18.54
2018-08-25T01:01:27.391Z,18.53
2018-08-25T01:06:31.492Z,18.53
2018-08-25T01:11:35.640Z,18.55
2018-08-25T01:16:40.056Z,18.49
2018-08-25T01:21:44.001Z,18.45
2018-08-25T01:26:48.084Z,18.42
2018-08-25T01:31:52.111Z,18.43
2018-08-25T01:36:55.461Z,18.45
2018-08-25T01:41:58.878Z,18.47
2018-08-25T01:47:02.221Z,18.49
2018-08-25T01:52:05.756Z,18.42
2018-08-25T01:57:09.197Z,18.35
2018-08-25T02:02:12.585Z,18.28
2018-08-25T02:07:15.956Z,18.24
2018-08-25T02:12:19.455Z,18.19
2018-08-25T02:17:22.778Z,18.14
2018-08-25T02:22:26.101Z,18.10
2018-08-25T02:27:29.436Z,18.11
2018-08-25T02:32:32.785Z,18.12
2018-08-25T02:37:36.147Z,18.13
2018-08-25T02:42:39.841Z,18.11
2018-08-25T02:47:43.161Z,18.09
2018-08-25T02:52:46.543Z,18.03
2018-08-25T02:57:49.885Z,18.01
2018-08-25T03:02:53.257Z,17.97
2018-08-25T03:07:58.082Z,17.97
2018-08-25T03:13:01.413Z,18.02
2018-08-25T03:18:04.836Z,17.99
2018-08-25T03:23:08.270Z,17.93
2018-08-25T03:28:11.630Z,17.89
2018-08-25T03:33:15.009Z,17.82
2018-08-25T03:38:18.370Z,17.77
2018-08-25T03:43:21.754Z,17.69
2018-08-25T03:48:25.130Z,17.55
2018-08-25T03:53:28.537Z,17.43
2018-08-25T03:58:31.993Z,17.37
2018-08-25T04:03:35.392Z,17.39
2018-08-25T04:08:38.744Z,17.48
2018-08-25T04:13:42.226Z,17.54
2018-08-25T04:18:45.584Z,17.60
2018-08-25T04:23:48.902Z,17.66
2018-08-25T04:28:52.384Z,17.69
2018-08-25T04:33:55.736Z,17.75
2018-08-25T04:38:59.074Z,17.83
2018-08-25T04:44:03.567Z,17.87
2018-08-25T04:49:07.136Z,17.93
2018-08-25T04:54:10.489Z,18.05
2018-08-25T04:59:13.797Z,18.16
2018-08-25T05:04:17.119Z,18.20
2018-08-25T05:09:20.500Z,18.28
2018-08-25T05:14:23.921Z,18.39
2018-08-25T05:19:27.273Z,18.51
2018-08-25T05:24:30.656Z,18.59
2018-08-25T05:29:34.224Z,18.55
2018-08-25T05:34:37.564Z,18.78
2018-08-25T05:39:40.930Z,18.86
2018-08-25T05:44:44.292Z,18.90
2018-08-25T05:49:47.750Z,18.93
2018-08-25T05:54:51.076Z,18.89
2018-08-25T05:59:54.682Z,18.78
2018-08-25T06:04:58.101Z,18.49
2018-08-25T06:10:01.713Z,18.24
2018-08-25T06:15:05.327Z,18.04
2018-08-25T06:20:11.198Z,17.80
2018-08-25T06:25:14.668Z,17.68
2018-08-25T06:30:18.108Z,17.58
2018-08-25T06:35:21.405Z,17.46
2018-08-25T06:40:24.781Z,17.50
2018-08-25T06:45:28.148Z,17.59
2018-08-25T06:50:31.562Z,17.76
2018-08-25T06:55:34.898Z,17.91
2018-08-25T07:00:38.302Z,18.04
2018-08-25T07:05:41.817Z,17.81
2018-08-25T07:10:45.412Z,17.66
2018-08-25T07:15:48.918Z,17.78
2018-08-25T07:20:52.374Z,17.90
2018-08-25T07:25:55.818Z,18.18
2018-08-25T07:30:59.259Z,18.20
2018-08-25T07:36:02.779Z,18.41
2018-08-25T07:41:06.369Z,18.70
2018-08-25T07:46:09.791Z,18.75
2018-08-25T07:51:13.150Z,18.75
2018-08-25T07:56:16.568Z,19.09
2018-08-25T08:01:19.952Z,19.20
2018-08-25T08:06:23.434Z,19.43
2018-08-25T08:11:26.880Z,19.83
2018-08-25T08:16:30.245Z,20.01
2018-08-25T08:21:33.662Z,19.49
2018-08-25T08:26:37.029Z,19.34
2018-08-25T08:31:40.412Z,19.23
2018-08-25T08:36:43.778Z,19.15
2018-08-25T08:41:47.165Z,18.86
2018-08-25T08:46:50.659Z,19.00
2018-08-25T08:51:54.175Z,19.55
2018-08-25T08:56:57.581Z,19.68
2018-08-25T09:02:00.920Z,19.77
2018-08-25T09:07:04.369Z,19.84
2018-08-25T09:12:07.794Z,19.98
2018-08-25T09:17:11.157Z,19.78
2018-08-25T09:22:14.621Z,19.33
2018-08-25T09:27:18.135Z,19.45
2018-08-25T09:32:21.535Z,19.76
2018-08-25T09:37:25.040Z,20.54
2018-08-25T09:42:28.445Z,21.26
2018-08-25T09:47:32.138Z,22.07
2018-08-25T09:52:35.649Z,22.09
2018-08-25T09:57:39.038Z,21.32
2018-08-25T10:02:42.362Z,20.67
2018-08-25T10:07:45.725Z,19.93
2018-08-25T10:12:49.111Z,19.48
2018-08-25T10:17:52.577Z,18.84
2018-08-25T10:22:55.925Z,18.83
2018-08-25T10:27:59.422Z,18.69
2018-08-25T10:33:02.795Z,19.16
2018-08-25T10:38:06.626Z,19.70
2018-08-25T10:43:10.128Z,20.85
2018-08-25T10:48:13.802Z,20.67
2018-08-25T10:53:17.156Z,19.60
2018-08-25T10:58:20.686Z,19.17
2018-08-25T11:03:24.135Z,19.13
2018-08-25T11:08:27.502Z,19.63
2018-08-25T11:13:30.853Z,20.03
2018-08-25T11:18:34.392Z,20.01
2018-08-25T11:23:37.815Z,20.00
2018-08-25T11:28:41.278Z,19.72
2018-08-25T11:33:44.618Z,20.30
2018-08-25T11:38:48.188Z,21.55
2018-08-25T11:43:51.582Z,22.17
2018-08-25T11:48:54.735Z,22.20
2018-08-25T11:53:58.111Z,21.79
2018-08-25T11:59:01.477Z,21.74
2018-08-25T12:04:05.065Z,22.01
2018-08-25T12:09:10.842Z,22.20
2018-08-25T12:14:14.253Z,21.90
2018-08-25T12:19:17.816Z,21.95
2018-08-25T12:24:21.136Z,21.99
2018-08-25T12:29:24.552Z,22.27
2018-08-25T12:34:28.164Z,22.76
2018-08-25T12:39:31.970Z,22.82
2018-08-25T12:44:35.361Z,22.28
2018-08-25T12:49:38.786Z,21.90
2018-08-25T12:54:42.130Z,22.02
2018-08-25T12:59:45.578Z,22.09
2018-08-25T13:04:49.015Z,21.99
2018-08-25T13:09:52.349Z,22.21
2018-08-25T13:14:55.695Z,22.31
2018-08-25T13:19:59.107Z,22.25
2018-08-25T13:25:02.519Z,22.41
2018-08-25T13:30:06.078Z,22.31
2018-08-25T13:35:09.440Z,22.85
2018-08-25T13:40:12.835Z,22.91
2018-08-25T13:45:16.366Z,22.92
2018-08-25T13:50:19.798Z,22.78
2018-08-25T13:55:23.274Z,22.54
2018-08-25T14:00:26.857Z,22.17
2018-08-25T14:05:30.606Z,21.54
2018-08-25T14:10:34.425Z,20.60
2018-08-25T14:15:38.048Z,20.21
2018-08-25T14:20:41.478Z,20.45
2018-08-25T14:25:44.909Z,20.45
2018-08-25T14:30:48.308Z,20.48
2018-08-25T14:35:51.645Z,20.90
2018-08-25T14:40:55.177Z,20.68
2018-08-25T14:45:58.648Z,20.94
2018-08-25T14:51:02.127Z,20.83
2018-08-25T14:56:05.859Z,20.78
2018-08-25T15:01:09.272Z,21.08
2018-08-25T15:06:12.698Z,21.53
2018-08-25T15:11:16.022Z,21.31
2018-08-25T15:16:19.410Z,21.66
2018-08-25T15:21:22.873Z,22.08
2018-08-25T15:26:26.380Z,22.03
2018-08-25T15:31:29.786Z,21.88
2018-08-25T15:36:34.029Z,21.25
2018-08-25T15:41:37.454Z,21.26
2018-08-25T15:46:40.845Z,20.72
2018-08-25T15:51:44.227Z,20.45
2018-08-25T15:56:47.609Z,21.19
2018-08-25T16:01:51.058Z,21.72
2018-08-25T16:06:54.110Z,21.64
2018-08-25T16:11:57.564Z,21.69
2018-08-25T16:17:00.931Z,21.72
2018-08-25T16:22:04.355Z,21.74
2018-08-25T16:27:08.247Z,21.86
2018-08-25T16:32:11.691Z,21.31
2018-08-25T16:37:15.077Z,20.59
2018-08-25T16:42:18.430Z,20.19
2018-08-25T16:47:21.777Z,20.00
2018-08-25T16:52:25.539Z,19.87
2018-08-25T16:57:28.892Z,19.77
2018-08-25T17:02:32.302Z,19.89
2018-08-25T17:07:35.629Z,20.21
2018-08-25T17:12:38.821Z,20.53
2018-08-25T17:17:42.246Z,20.73
2018-08-25T17:22:45.642Z,20.53
2018-08-25T17:27:49.007Z,20.16
2018-08-25T17:32:53.037Z,19.86
2018-08-25T17:37:56.809Z,19.37
2018-08-25T17:43:00.524Z,19.73
2018-08-25T17:48:04.033Z,19.69
2018-08-25T17:53:07.449Z,19.62
2018-08-25T17:58:12.532Z,19.60
2018-08-25T18:03:16.044Z,19.37
2018-08-25T18:08:19.425Z,19.20
2018-08-25T18:13:22.781Z,19.15
2018-08-25T18:18:26.170Z,19.06
2018-08-25T18:23:29.814Z,18.89
2018-08-25T18:28:33.194Z,18.81
2018-08-25T18:33:36.639Z,18.79
2018-08-25T18:38:40.109Z,18.77
2018-08-25T18:43:44.759Z,18.73
2018-08-25T18:48:48.723Z,18.51
2018-08-25T18:53:53.089Z,18.35
2018-08-25T18:58:57.338Z,18.11
2018-08-25T19:04:01.598Z,17.85
2018-08-25T19:09:08.175Z,17.69
2018-08-25T19:14:12.170Z,17.61
2018-08-25T19:19:16.186Z,17.49
2018-08-25T19:24:20.275Z,17.39
2018-08-25T19:29:24.342Z,17.33
2018-08-25T19:34:28.107Z,17.35
2018-08-25T19:39:32.040Z,17.49
2018-08-25T19:44:36.112Z,17.34
2018-08-25T19:49:39.621Z,17.01
2018-08-25T19:54:43.066Z,16.82
2018-08-25T19:59:47.709Z,16.69
2018-08-25T20:04:51.246Z,16.57
2018-08-25T20:09:54.707Z,16.47
2018-08-25T20:14:58.155Z,16.38
2018-08-25T20:20:01.822Z,16.27
2018-08-25T20:25:05.742Z,16.21
2018-08-25T20:30:09.430Z,16.15
2018-08-25T20:35:14.479Z,16.04
2018-08-25T20:40:18.834Z,15.97
2018-08-25T20:45:22.403Z,15.86
2018-08-25T20:50:25.829Z,15.74
2018-08-25T20:55:29.193Z,15.67
2018-08-25T21:00:32.477Z,15.62
2018-08-25T21:05:35.985Z,15.64
2018-08-25T21:10:39.443Z,15.65
2018-08-25T21:15:42.833Z,15.69
2018-08-25T21:20:46.206Z,15.66
2018-08-25T21:25:49.629Z,15.59
2018-08-25T21:30:53.064Z,15.53
2018-08-25T21:35:56.422Z,15.53
2018-08-25T21:40:59.796Z,15.58
2018-08-25T21:46:03.175Z,15.49
2018-08-25T21:51:06.692Z,15.37
2018-08-25T21:56:10.007Z,15.29
2018-08-25T22:01:13.468Z,15.23
2018-08-25T22:06:16.834Z,15.13
2018-08-25T22:11:20.325Z,15.11
2018-08-25T22:16:23.568Z,15.11
2018-08-25T22:21:27.012Z,15.12
2018-08-25T22:26:30.455Z,15.06
2018-08-25T22:31:33.882Z,15.01
2018-08-25T22:36:37.288Z,14.94
2018-08-25T22:41:40.848Z,14.92
2018-08-25T22:46:44.271Z,14.93
2018-08-25T22:51:47.656Z,14.87
2018-08-25T22:56:51.185Z,14.79
2018-08-25T23:01:54.583Z,14.73
2018-08-25T23:06:58.013Z,14.72
2018-08-25T23:12:01.513Z,14.80
2018-08-25T23:17:04.978Z,14.83
2018-08-25T23:22:08.549Z,14.72
2018-08-25T23:27:12.041Z,14.66
2018-08-25T23:32:15.438Z,14.61
2018-08-25T23:37:18.804Z,14.56
2018-08-25T23:42:22.224Z,14.50
2018-08-25T23:47:25.689Z,14.46
2018-08-25T23:52:33.440Z,14.52
2018-08-25T23:57:36.873Z,14.52
